Time;durP1;ratioP1;P1;durP2;ratioP2;P2;SDS_P1;SDS_P2;PMS_P1;PMS_P2;Temp;Humidity;BMP_temperature;BMP_pressure;BME280_temperature;BME280_humidity;BME280_pressure;Samples;Min_cycle;Max_cycle;Signal;HPM_P1;HPM_P2
2021/04/17 00:00:48;;;;;;;21.42;9.38;;;;;;;;;;4281361;28;10000728;-65
2021/04/17 00:03:14;;;;;;;16.23;8.65;;;;;;;;;;4952839;28;20027;-63
2021/04/17 00:05:39;;;;;;;16.88;9.20;;;7.30;99.90;;;;;;4953384;29;20401;-63
2021/04/17 00:08:05;;;;;;;20.33;9.38;;;6.60;99.90;;;;;;4969634;28;20035;-63
2021/04/17 00:10:31;;;;;;;17.38;9.15;;;6.50;99.90;;;;;;4969547;28;20508;-65
2021/04/17 00:12:56;;;;;;;17.77;8.82;;;6.50;99.90;;;;;;4954749;28;20031;-64
2021/04/17 00:15:22;;;;;;;17.92;8.98;;;6.40;99.90;;;;;;4954593;28;20038;-65
2021/04/17 00:17:48;;;;;;;16.23;8.40;;;6.40;99.90;;;;;;4969372;28;20484;-65
2021/04/17 00:20:14;;;;;;;16.55;8.32;;;6.30;99.90;;;;;;4954401;28;20031;-65
2021/04/17 00:22:40;;;;;;;17.65;8.50;;;6.30;99.90;;;;;;4969479;28;20461;-64
2021/04/17 00:25:06;;;;;;;17.35;8.80;;;6.20;99.90;;;;;;4969723;28;20059;-63
2021/04/17 00:27:31;;;;;;;17.98;8.27;;;6.20;99.90;;;;;;4954871;28;20022;-62
2021/04/17 00:29:57;;;;;;;17.52;8.75;;;6.10;99.90;;;;;;4994030;23;20141;-59
2021/04/17 00:32:23;;;;;;;15.52;8.00;;;6.10;99.90;;;;;;4988181;28;20479;-61
2021/04/17 00:34:48;;;;;;;16.85;8.00;;;6.00;99.90;;;;;;4988322;28;20086;-60
2021/04/17 00:37:14;;;;;;;15.95;7.80;;;6.00;99.90;;;;;;4972621;28;20117;-61
2021/04/17 00:39:40;;;;;;;16.33;8.40;;;5.90;99.90;;;;;;4999038;28;20452;-61
2021/04/17 00:42:09;;;;;;;19.70;8.45;;;5.80;99.90;;;;;;4973229;28;20469;-62
2021/04/17 00:44:35;;;;;;;19.20;7.68;;;5.80;99.90;;;;;;4973380;28;20030;-59
2021/04/17 00:47:04;;;;;;;17.33;8.07;;;5.80;99.90;;;;;;4972034;28;20023;-61
2021/04/17 00:49:31;;;;;;;20.20;8.70;;;5.80;99.90;;;;;;4972760;28;20042;-61
2021/04/17 00:51:57;;;;;;;18.35;7.85;;;5.70;99.90;;;;;;4973285;28;20513;-61
2021/04/17 00:54:22;;;;;;;18.10;7.68;;;5.70;99.90;;;;;;4971953;28;20035;-61
2021/04/17 00:56:48;;;;;;;18.05;7.72;;;5.60;99.90;;;;;;4972222;28;20432;-60
2021/04/17 00:59:13;;;;;;;17.52;7.75;;;5.60;99.90;;;;;;4971452;28;20122;-63
2021/04/17 01:01:40;;;;;;;16.67;7.78;;;5.60;99.90;;;;;;4972110;28;20424;-57
2021/04/17 01:04:05;;;;;;;16.50;8.05;;;5.50;99.90;;;;;;4971820;28;20038;-58
2021/04/17 01:07:03;;;;;;;17.80;8.30;;;5.40;99.90;;;;;;4971965;28;20026;-62
2021/04/17 01:10:01;;;;;;;18.90;8.53;;;5.40;99.90;;;;;;4972839;28;20492;-60
2021/04/17 01:12:31;;;;;;;16.33;7.50;;;5.40;99.90;;;;;;4973092;28;20106;-60
2021/04/17 01:14:57;;;;;;;16.92;7.63;;;5.30;99.90;;;;;;4973355;28;20039;-60
2021/04/17 01:17:24;;;;;;;18.52;8.52;;;5.30;99.90;;;;;;4974400;28;20037;-61
2021/04/17 01:20:11;;;;;;;18.50;8.05;;;5.30;99.90;;;;;;4975174;28;20035;-60
2021/04/17 01:22:38;;;;;;;16.33;7.70;;;5.10;99.90;;;;;;4975578;28;20404;-59
2021/04/17 01:25:14;;;;;;;21.13;8.63;;;5.10;99.90;;;;;;4975353;28;20022;-59
2021/04/17 01:27:40;;;;;;;19.88;8.32;;;5.20;99.90;;;;;;4975600;28;20023;-60
2021/04/17 01:30:15;;;;;;;19.45;7.97;;;5.20;99.90;;;;;;4974757;28;20101;-60
2021/04/17 01:32:43;;;;;;;19.27;8.20;;;5.20;99.90;;;;;;4976463;28;20440;-60
2021/04/17 01:35:13;;;;;;;18.90;7.93;;;5.20;99.90;;;;;;4975128;28;20034;-59
2021/04/17 01:37:50;;;;;;;17.13;9.18;;;5.20;99.90;;;;;;4976805;28;20369;-61
2021/04/17 01:40:17;;;;;;;16.00;7.50;;;5.20;99.90;;;;;;4976389;28;20085;-59
2021/04/17 01:42:45;;;;;;;76.65;49.17;;;5.10;99.90;;;;;;4976657;28;20058;-60
2021/04/17 01:45:12;;;;;;;115.30;71.07;;;5.00;99.90;;;;;;4976678;28;20441;-62
2021/04/17 01:47:38;;;;;;;53.90;35.17;;;5.00;99.90;;;;;;4976709;28;20027;-60
2021/04/17 01:50:06;;;;;;;31.63;18.48;;;5.00;99.90;;;;;;5007875;28;20030;-61
2021/04/17 01:52:32;;;;;;;31.43;18.80;;;5.00;99.90;;;;;;4975360;28;20039;-61
2021/04/17 01:55:00;;;;;;;32.47;18.17;;;5.00;99.90;;;;;;4976544;28;20278;-59
2021/04/17 01:57:27;;;;;;;19.35;9.18;;;4.90;99.90;;;;;;4975362;28;20027;-60
2021/04/17 01:59:53;;;;;;;19.02;8.05;;;5.00;99.90;;;;;;4974461;28;20069;-60
2021/04/17 02:02:19;;;;;;;16.63;7.75;;;4.90;99.90;;;;;;4975904;28;20055;-60
2021/04/17 02:04:45;;;;;;;16.70;7.63;;;4.90;99.90;;;;;;4975981;28;20105;-60
2021/04/17 02:07:11;;;;;;;19.10;8.00;;;4.80;99.90;;;;;;4975798;28;20061;-60
2021/04/17 02:09:37;;;;;;;19.30;8.77;;;4.70;99.90;;;;;;4975465;28;20468;-61
2021/04/17 02:12:04;;;;;;;22.60;8.95;;;4.70;99.90;;;;;;4975892;28;20027;-59
2021/04/17 02:14:30;;;;;;;18.77;7.85;;;4.70;99.90;;;;;;4974355;28;20519;-60
2021/04/17 02:17:16;;;;;;;20.80;8.18;;;4.60;99.90;;;;;;4975640;28;20026;-60
2021/04/17 02:19:42;;;;;;;18.95;7.97;;;;;;;;;;4974077;28;20051;-60
2021/04/17 02:22:08;;;;;;;17.58;7.13;;;;;;;;;;4975438;28;20366;-60
2021/04/17 02:24:34;;;;;;;17.80;7.53;;;4.60;99.90;;;;;;4975437;28;20027;-58
2021/04/17 02:26:59;;;;;;;17.30;7.22;;;4.50;99.90;;;;;;4974088;28;20023;-59
2021/04/17 02:29:26;;;;;;;17.33;7.43;;;4.40;99.90;;;;;;4973239;28;20520;-58
2021/04/17 02:31:51;;;;;;;17.58;8.00;;;4.30;99.90;;;;;;4975417;28;20029;-60
2021/04/17 02:34:19;;;;;;;18.63;9.15;;;4.30;99.90;;;;;;4974055;28;20117;-59
2021/04/17 02:36:45;;;;;;;16.38;7.32;;;;;;;;;;4973908;28;20035;-58
2021/04/17 02:39:11;;;;;;;17.30;7.85;;;;;;;;;;4990153;28;20027;-60
2021/04/17 02:41:37;;;;;;;18.50;8.00;;;;;;;;;;4989980;28;20042;-58
2021/04/17 02:44:03;;;;;;;17.25;8.02;;;;;;;;;;4975036;28;20070;-60
2021/04/17 02:46:29;;;;;;;18.15;7.53;;;;;;;;;;4975136;28;20037;-60
2021/04/17 02:48:55;;;;;;;18.02;7.80;;;;;;;;;;4989851;28;20026;-59
2021/04/17 02:51:21;;;;;;;16.83;7.45;;;;;;;;;;4975063;28;20035;-60
2021/04/17 02:53:48;;;;;;;20.38;7.88;;;;;;;;;;4989971;28;20030;-59
2021/04/17 02:56:15;;;;;;;16.40;7.22;;;;;;;;;;4989767;28;20031;-57
2021/04/17 02:58:41;;;;;;;17.42;8.20;;;;;;;;;;4974366;28;20109;-60
2021/04/17 03:01:07;;;;;;;17.38;8.93;;;;;;;;;;4974559;28;20129;-60
2021/04/17 03:03:33;;;;;;;17.42;7.57;;;;;;;;;;4989873;28;20033;-61
2021/04/17 03:05:59;;;;;;;18.23;7.32;;;;;;;;;;4989607;28;20077;-62
2021/04/17 03:08:25;;;;;;;19.80;7.65;;;;;;;;;;4989484;28;20051;-60
2021/04/17 03:10:51;;;;;;;18.48;7.47;;;;;;;;;;4989490;28;20030;-61
2021/04/17 03:13:17;;;;;;;17.48;7.40;;;;;;;;;;4974509;28;20501;-61
2021/04/17 03:15:43;;;;;;;15.52;6.65;;;;;;;;;;4974789;28;20473;-61
2021/04/17 03:18:09;;;;;;;21.48;8.23;;;;;;;;;;4974466;28;20046;-62
2021/04/17 03:20:35;;;;;;;18.33;7.47;;;;;;;;;;4974185;28;20478;-61
2021/04/17 03:23:01;;;;;;;17.17;7.35;;;;;;;;;;4974335;28;20034;-59
2021/04/17 03:25:28;;;;;;;16.70;7.18;;;;;;;;;;4989217;28;20034;-57
2021/04/17 03:27:54;;;;;;;16.73;7.47;;;;;;;;;;4989089;28;20026;-62
2021/04/17 03:30:26;;;;;;;18.35;7.53;;;;;;;;;;4973947;28;20031;-60
2021/04/17 03:32:53;;;;;;;19.00;7.93;;;;;;;;;;4974488;28;20096;-59
2021/04/17 03:35:19;;;;;;;17.25;7.28;;;;;;;;;;4989216;28;20030;-61
2021/04/17 03:37:45;;;;;;;16.48;6.80;;;;;;;;;;4989260;28;20031;-61
2021/04/17 03:40:11;;;;;;;17.10;7.47;;;;;;;;;;4972749;28;20058;-60
2021/04/17 03:42:37;;;;;;;19.50;6.93;;;;;;;;;;4973910;28;20035;-59
2021/04/17 03:45:05;;;;;;;18.70;7.22;;;;;;;;;;4973889;28;20026;-60
2021/04/17 03:47:31;;;;;;;20.08;9.00;;;;;;;;;;4973873;28;20023;-59
2021/04/17 03:49:59;;;;;;;26.77;12.52;;;;;;;;;;4973641;28;20033;-59
2021/04/17 03:52:25;;;;;;;21.13;7.55;;;;;;;;;;4988794;28;20026;-58
2021/04/17 03:54:51;;;;;;;18.63;7.95;;;;;;;;;;4988737;28;20481;-59
2021/04/17 03:57:17;;;;;;;20.58;8.20;;;;;;;;;;4989246;28;20037;-58
2021/04/17 03:59:45;;;;;;;17.60;7.50;;;;;;;;;;4973634;28;20026;-57
2021/04/17 04:02:11;;;;;;;18.83;8.25;;;;;;;;;;4974061;28;20122;-59
2021/04/17 04:04:37;;;;;;;19.73;8.73;;;;;;;;;;4988588;28;20540;-58
2021/04/17 04:07:03;;;;;;;16.25;6.97;;;;;;;;;;4973562;28;20031;-57
2021/04/17 04:09:30;;;;;;;18.30;7.10;;;;;;;;;;4973538;28;20114;-59
2021/04/17 04:11:56;;;;;;;18.02;7.32;;;;;;;;;;4988487;28;20046;-58
2021/04/17 04:14:22;;;;;;;18.10;7.85;;;4.30;99.90;;;;;;4973648;28;20484;-57
2021/04/17 04:16:47;;;;;;;17.98;8.32;;;3.40;99.90;;;;;;4973491;28;20495;-60
2021/04/17 04:19:13;;;;;;;18.20;7.80;;;3.40;99.90;;;;;;4971963;28;20088;-60
2021/04/17 04:21:38;;;;;;;17.40;7.30;;;3.40;99.90;;;;;;4972340;28;20023;-60
2021/04/17 04:24:04;;;;;;;17.83;8.02;;;3.40;99.90;;;;;;4971771;28;20029;-58
2021/04/17 04:26:30;;;;;;;17.73;7.40;;;3.40;99.90;;;;;;4973383;28;20485;-59
2021/04/17 04:28:56;;;;;;;19.55;7.82;;;3.40;99.90;;;;;;4972979;28;20063;-59
2021/04/17 04:31:21;;;;;;;18.67;7.60;;;3.40;99.90;;;;;;4972040;28;20057;-56
2021/04/17 04:33:47;;;;;;;17.08;7.55;;;3.30;99.90;;;;;;4973318;28;20041;-55
2021/04/17 04:36:12;;;;;;;19.52;8.25;;;3.30;99.90;;;;;;4973350;28;20030;-59
2021/04/17 04:38:38;;;;;;;20.35;7.93;;;3.30;99.90;;;;;;4972012;28;20023;-60
2021/04/17 04:41:03;;;;;;;20.98;8.55;;;3.20;99.90;;;;;;4973364;28;20531;-57
2021/04/17 04:43:29;;;;;;;20.08;7.60;;;3.20;99.90;;;;;;4973345;28;20097;-56
2021/04/17 04:45:54;;;;;;;20.13;7.95;;;3.20;99.90;;;;;;4973067;28;20062;-57
2021/04/17 04:48:20;;;;;;;18.95;7.80;;;3.20;99.90;;;;;;4973018;28;20432;-56
2021/04/17 04:50:46;;;;;;;16.85;7.70;;;3.20;99.90;;;;;;4973164;28;20039;-56
2021/04/17 04:53:12;;;;;;;21.23;7.65;;;3.30;99.90;;;;;;4976909;28;20456;-58
2021/04/17 04:55:37;;;;;;;20.65;8.13;;;3.30;99.90;;;;;;4977186;28;20101;-57
2021/04/17 04:58:03;;;;;;;18.70;7.15;;;3.30;99.90;;;;;;4975532;28;20022;-59
2021/04/17 05:00:28;;;;;;;17.38;7.50;;;3.30;99.90;;;;;;4983042;28;20169;-59
2021/04/17 05:02:54;;;;;;;18.70;8.02;;;3.30;99.90;;;;;;4985387;28;20035;-54
2021/04/17 05:05:20;;;;;;;18.77;7.90;;;3.30;99.90;;;;;;4985049;28;20049;-59
2021/04/17 05:07:45;;;;;;;17.33;8.48;;;3.40;99.90;;;;;;4995056;28;20113;-59
2021/04/17 05:10:12;;;;;;;17.20;7.75;;;3.40;99.90;;;;;;4995931;28;20026;-58
2021/04/17 05:12:38;;;;;;;18.95;7.45;;;3.40;99.90;;;;;;4994038;28;20499;-58
2021/04/17 05:15:05;;;;;;;21.92;10.63;;;3.40;99.90;;;;;;4980808;28;20062;-59
2021/04/17 05:17:31;;;;;;;19.98;8.45;;;3.40;99.90;;;;;;4987262;28;20074;-57
2021/04/17 05:19:57;;;;;;;17.27;7.43;;;3.50;99.90;;;;;;4987646;28;20060;-57
2021/04/17 05:22:22;;;;;;;18.20;8.23;;;3.50;99.90;;;;;;4994890;28;20030;-58
2021/04/17 05:24:52;;;;;;;16.42;8.35;;;3.60;99.90;;;;;;4994700;28;20117;-59
2021/04/17 05:27:18;;;;;;;17.52;7.90;;;3.60;99.90;;;;;;4995859;28;20026;-58
2021/04/17 05:29:43;;;;;;;16.48;7.57;;;3.70;99.90;;;;;;4994138;28;20026;-59
2021/04/17 05:32:09;;;;;;;19.77;7.60;;;3.70;99.90;;;;;;4985392;28;20034;-59
2021/04/17 05:34:35;;;;;;;20.52;8.40;;;3.80;99.90;;;;;;4990153;28;20026;-59
2021/04/17 05:37:01;;;;;;;18.65;8.75;;;3.90;99.90;;;;;;4986257;28;20034;-57
2021/04/17 05:39:27;;;;;;;18.40;7.38;;;3.90;99.90;;;;;;4985657;28;20515;-57
2021/04/17 05:41:53;;;;;;;16.77;7.00;;;4.00;99.90;;;;;;4988856;28;20022;-58
2021/04/17 05:44:19;;;;;;;18.25;7.25;;;4.00;99.90;;;;;;4986194;28;20031;-59
2021/04/17 05:46:44;;;;;;;22.80;8.45;;;4.10;99.90;;;;;;4984755;28;20018;-58
2021/04/17 05:49:11;;;;;;;19.83;7.63;;;4.10;99.90;;;;;;4983157;28;20054;-59
2021/04/17 05:51:39;;;;;;;16.00;7.50;;;4.20;99.90;;;;;;4994409;28;20109;-58
2021/04/17 05:54:05;;;;;;;22.45;7.93;;;4.20;99.90;;;;;;4994387;28;20058;-59
2021/04/17 05:56:31;;;;;;;18.85;7.75;;;4.30;99.90;;;;;;4995689;28;20030;-59
2021/04/17 05:58:57;;;;;;;18.95;7.95;;;4.30;99.90;;;;;;4971109;28;20050;-55
2021/04/17 06:01:23;;;;;;;18.10;7.38;;;4.40;99.90;;;;;;4977184;28;20026;-58
2021/04/17 06:03:48;;;;;;;19.50;7.70;;;4.40;99.90;;;;;;4977735;28;20105;-58
2021/04/17 06:06:16;;;;;;;19.60;7.70;;;4.50;99.90;;;;;;4975783;28;20019;-60
2021/04/17 06:08:43;;;;;;;17.63;7.82;;;4.50;99.90;;;;;;4974770;28;20046;-60
2021/04/17 06:11:09;;;;;;;19.02;7.38;;;4.50;99.90;;;;;;4974024;28;20121;-60
2021/04/17 06:13:35;;;;;;;22.08;7.85;;;4.60;99.90;;;;;;4976796;28;20113;-60
2021/04/17 06:16:02;;;;;;;18.58;7.63;;;4.70;99.90;;;;;;4985516;28;20058;-57
2021/04/17 06:18:28;;;;;;;19.27;7.60;;;;;;;;;;4982530;28;20089;-59
2021/04/17 06:20:54;;;;;;;19.75;7.47;;;;;;;;;;4985787;28;20068;-60
2021/04/17 06:23:21;;;;;;;18.33;7.88;;;;;;;;;;4984723;28;20421;-60
2021/04/17 06:25:47;;;;;;;21.73;8.18;;;;;;;;;;4994784;28;20116;-60
2021/04/17 06:28:13;;;;;;;17.67;8.73;;;;;;;;;;4991754;28;20058;-57
2021/04/17 06:30:39;;;;;;;17.77;7.78;;;;;;;;;;4976303;23;20035;-61
2021/04/17 06:33:05;;;;;;;22.90;9.40;;;;;;;;;;4964000;28;20078;-59
2021/04/17 06:35:31;;;;;;;17.50;8.00;;;;;;;;;;4962570;28;20027;-62
2021/04/17 06:37:57;;;;;;;21.10;7.63;;;;;;;;;;4968521;28;20027;-61
2021/04/17 06:40:23;;;;;;;18.65;7.63;;;;;;;;;;4952372;28;20378;-61
2021/04/17 06:42:51;;;;;;;18.40;7.82;;;;;;;;;;4947805;28;20040;-62
2021/04/17 06:45:19;;;;;;;20.88;8.23;;;;;;;;;;4965771;28;20050;-58
2021/04/17 06:47:45;;;;;;;20.05;8.00;;;;;;;;;;4966909;28;20025;-61
2021/04/17 06:50:12;;;;;;;23.48;9.52;;;;;;;;;;4963193;28;20030;-60
2021/04/17 06:52:38;;;;;;;22.05;7.90;;;;;;;;;;4964135;28;20026;-63
2021/04/17 06:55:06;;;;;;;18.85;8.23;;;;;;;;;;4971847;28;20038;-60
2021/04/17 06:57:33;;;;;;;19.08;8.85;;;;;;;;;;4962541;28;20019;-60
2021/04/17 07:00:00;;;;;;;21.58;8.57;;;;;;;;;;4957316;28;20062;-61
2021/04/17 07:02:26;;;;;;;23.92;12.18;;;;;;;;;;4963835;28;20031;-60
2021/04/17 07:04:52;;;;;;;17.50;8.27;;;;;;;;;;4959045;28;20094;-60
2021/04/17 07:07:18;;;;;;;20.73;8.52;;;;;;;;;;4962627;28;20041;-61
2021/04/17 07:09:44;;;;;;;24.70;8.75;;;;;;;;;;4962461;28;20026;-61
2021/04/17 07:12:11;;;;;;;25.35;8.70;;;;;;;;;;4968445;28;20397;-61
2021/04/17 07:14:47;;;;;;;19.88;8.40;;;;;;;;;;4958078;28;20085;-62
2021/04/17 07:17:13;;;;;;;25.23;9.50;;;;;;;;;;4963358;28;20382;-61
2021/04/17 07:20:02;;;;;;;17.75;7.78;;;;;;;;;;4960063;28;20098;-60
2021/04/17 07:22:29;;;;;;;20.95;9.07;;;;;;;;;;4971560;28;20528;-61
2021/04/17 07:25:05;;;;;;;22.70;8.73;;;;;;;;;;4971346;28;20027;-57
2021/04/17 07:27:35;;;;;;;23.20;9.20;;;;;;;;;;4971887;28;20034;-61
2021/04/17 07:30:05;;;;;;;20.00;8.75;;;;;;;;;;4971562;28;20076;-61
2021/04/17 07:32:32;;;;;;;20.75;7.93;;;;;;;;;;4969379;28;20084;-61
2021/04/17 07:35:24;;;;;;;23.13;9.45;;;;;;;;;;4946835;28;20047;-64
2021/04/17 07:38:06;;;;;;;21.35;8.70;;;;;;;;;;4945086;28;20465;-65
2021/04/17 07:40:33;;;;;;;25.58;8.27;;;;;;;;;;4947390;28;20030;-65
2021/04/17 07:42:59;;;;;;;23.35;9.25;;;;;;;;;;4947081;28;20027;-64
2021/04/17 07:45:28;;;;;;;21.95;8.77;;;;;;;;;;4946741;28;20039;-66
2021/04/17 07:47:56;;;;;;;22.48;9.57;;;;;;;;;;4949373;28;20067;-65
2021/04/17 07:50:22;;;;;;;;;;;;;;;;;;4954339;28;20429;-63
2021/04/17 07:52:48;;;;;;;20.77;9.02;;;;;;;;;;4960300;28;19906;-64
2021/04/17 07:55:17;;;;;;;18.95;7.50;;;;;;;;;;4961135;28;20368;-64
2021/04/17 07:58:01;;;;;;;19.83;8.13;;;;;;;;;;4961443;28;20031;-62
2021/04/17 08:00:28;;;;;;;19.05;7.97;;;;;;;;;;4954734;28;20031;-63
2021/04/17 08:02:57;;;;;;;23.80;9.05;;;;;;;;;;4951187;28;20050;-63
2021/04/17 08:05:25;;;;;;;22.13;7.65;;;;;;;;;;4952722;28;20402;-64
2021/04/17 08:07:51;;;;;;;20.85;8.70;;;;;;;;;;4956653;28;20111;-63
2021/04/17 08:10:18;;;;;;;19.35;8.00;;;;;;;;;;4963049;28;20027;-64
2021/04/17 08:12:45;;;;;;;20.40;9.00;;;;;;;;;;4955594;28;20114;-64
2021/04/17 08:15:12;;;;;;;20.75;8.65;;;;;;;;;;4960620;28;20493;-65
2021/04/17 08:17:40;;;;;;;20.95;8.25;;;;;;;;;;4953005;29;20023;-63
2021/04/17 08:20:06;;;;;;;20.98;8.85;;;;;;;;;;4952879;28;20049;-63
2021/04/17 08:22:32;;;;;;;22.40;9.30;;;;;;;;;;4962439;28;20031;-64
2021/04/17 08:24:59;;;;;;;21.63;9.07;;;;;;;;;;4962312;28;20030;-63
2021/04/17 08:27:28;;;;;;;24.02;9.68;;;;;;;;;;4958942;28;20106;-62
2021/04/17 08:29:55;;;;;;;24.05;8.98;;;;;;;;;;4949777;28;20031;-62
2021/04/17 08:32:35;;;;;;;21.55;8.82;;;;;;;;;;4949873;28;20035;-61
2021/04/17 08:35:04;;;;;;;25.05;9.85;;;;;;;;;;4948263;28;20110;-59
2021/04/17 08:37:32;;;;;;;26.38;9.15;;;;;;;;;;4953514;28;20041;-60
2021/04/17 08:39:59;;;;;;;21.40;9.10;;;;;;;;;;4945927;28;20048;-63
2021/04/17 08:42:46;;;;;;;23.17;9.50;;;;;;;;;;4954920;28;20031;-62
2021/04/17 08:45:14;;;;;;;20.33;9.80;;;;;;;;;;4957058;28;20020;-63
2021/04/17 08:47:47;;;;;;;33.38;18.92;;;;;;;;;;4971307;28;20146;-61
2021/04/17 08:50:35;;;;;;;21.63;10.25;;;;;;;;;;4970503;28;20038;-61
2021/04/17 08:53:10;;;;;;;23.83;9.93;;;;;;;;;;4956816;28;20111;-64
2021/04/17 08:55:35;;;;;;;23.85;9.07;;;;;;;;;;4952077;28;20430;-64
2021/04/17 08:58:20;;;;;;;20.33;8.90;;;;;;;;;;4951480;29;20074;-65
2021/04/17 09:00:49;;;;;;;21.42;9.85;;;;;;;;;;4950929;29;20099;-64
2021/04/17 09:03:34;;;;;;;21.25;9.38;;;;;;;;;;4951708;28;20035;-65
2021/04/17 09:06:00;;;;;;;22.52;9.57;;;;;;;;;;4951908;29;20028;-63
2021/04/17 09:08:26;;;;;;;17.23;8.85;;;;;;;;;;4955847;28;20084;-64
2021/04/17 09:10:53;;;;;;;20.73;9.10;;;;;;;;;;4964989;28;20030;-65
2021/04/17 09:13:22;;;;;;;19.97;8.43;;;;;;;;;;4959348;28;20041;-65
2021/04/17 09:15:58;;;;;;;18.02;8.52;;;;;;;;;;4954571;28;20282;-63
2021/04/17 09:18:39;;;;;;;18.77;8.57;;;4.70;99.90;;;;;;4960152;28;20042;-61
2021/04/17 09:21:08;;;;;;;18.23;7.90;;;10.10;99.90;;;;;;4962492;28;20023;-57
2021/04/17 09:23:37;;;;;;;;;;;10.20;99.90;;;;;;4959621;28;20023;-62
2021/04/17 09:26:03;;;;;;;20.73;7.68;;;10.30;99.90;;;;;;4955781;28;19912;-62
2021/04/17 09:28:39;;;;;;;18.02;7.85;;;10.60;99.90;;;;;;4952916;28;20500;-62
2021/04/17 09:31:06;;;;;;;19.30;8.00;;;10.80;99.90;;;;;;4958871;28;20038;-63
2021/04/17 09:33:32;;;;;;;18.98;8.35;;;10.60;99.90;;;;;;4970738;28;20038;-64
2021/04/17 09:35:58;;;;;;;28.00;13.82;;;11.10;99.90;;;;;;4969366;28;20031;-64
2021/04/17 09:38:30;;;;;;;20.50;8.93;;;11.40;99.90;;;;;;4971936;28;20031;-62
2021/04/17 09:40:57;;;;;;;19.60;9.30;;;11.40;99.90;;;;;;4974685;28;20112;-62
2021/04/17 09:43:32;;;;;;;20.10;9.02;;;11.80;99.90;;;;;;4974222;28;20046;-64
2021/04/17 09:46:05;;;;;;;20.40;10.93;;;11.80;99.90;;;;;;4974797;28;20023;-63
2021/04/17 09:48:44;;;;;;;18.23;10.07;;;12.10;99.90;;;;;;4973464;28;20025;-62
2021/04/17 09:51:23;;;;;;;19.30;10.13;;;12.40;99.90;;;;;;4974713;28;20055;-62
2021/04/17 09:53:51;;;;;;;18.77;10.10;;;12.00;99.90;;;;;;4974490;28;20073;-63
2021/04/17 09:56:28;;;;;;;24.67;11.43;;;11.90;99.90;;;;;;4973524;28;20074;-65
2021/04/17 09:58:56;;;;;;;21.27;10.63;;;12.50;99.90;;;;;;4974196;28;20027;-62
2021/04/17 10:01:23;;;;;;;17.10;10.18;;;12.80;97.30;;;;;;4974506;28;20019;-64
2021/04/17 10:03:53;;;;;;;18.00;10.27;;;12.80;95.30;;;;;;4974231;28;20114;-63
2021/04/17 10:06:26;;;;;;;15.77;9.80;;;12.90;93.00;;;;;;4974302;28;20023;-63
2021/04/17 10:08:52;;;;;;;16.52;10.15;;;12.90;91.40;;;;;;4973696;28;20023;-64
2021/04/17 10:11:27;;;;;;;17.70;10.43;;;13.50;90.00;;;;;;4973073;28;20038;-63
2021/04/17 10:13:53;;;;;;;20.02;10.27;;;13.60;87.00;;;;;;4974117;28;20023;-62
2021/04/17 10:16:36;;;;;;;15.25;9.65;;;13.30;82.50;;;;;;4972812;28;20066;-62
2021/04/17 10:19:07;;;;;;;16.80;9.93;;;13.00;82.60;;;;;;4973764;28;20027;-60
2021/04/17 10:21:34;;;;;;;20.10;11.57;;;13.20;82.90;;;;;;4974243;28;20022;-63
2021/04/17 10:24:19;;;;;;;19.27;12.25;;;13.40;79.70;;;;;;4972729;28;20382;-64
2021/04/17 10:27:03;;;;;;;18.95;12.13;;;13.90;81.70;;;;;;4974012;28;20461;-62
2021/04/17 10:29:53;;;;;;;21.17;11.75;;;14.10;81.80;;;;;;4973365;28;20054;-60
2021/04/17 10:32:27;;;;;;;16.88;10.50;;;14.60;79.50;;;;;;4962892;28;20382;-57
2021/04/17 10:35:00;;;;;;;21.92;11.00;;;13.70;81.10;;;;;;4973996;28;20477;-63
2021/04/17 10:37:26;;;;;;;18.65;10.75;;;13.90;80.30;;;;;;4975791;28;20393;-62
2021/04/17 10:40:06;;;;;;;18.52;12.07;;;14.00;79.20;;;;;;4973455;28;20030;-63
2021/04/17 10:42:55;;;;;;;20.65;11.02;;;14.30;80.40;;;;;;4973511;28;20015;-63
2021/04/17 10:45:23;;;;;;;18.90;10.88;;;14.30;78.90;;;;;;4972065;28;20122;-61
2021/04/17 10:47:59;;;;;;;17.17;10.70;;;14.10;77.30;;;;;;4973455;28;20027;-61
2021/04/17 10:50:27;;;;;;;17.42;10.70;;;13.90;78.50;;;;;;4972537;28;20277;-64
2021/04/17 10:53:00;;;;;;;16.65;10.18;;;14.10;76.50;;;;;;4973381;28;20034;-61
2021/04/17 10:55:35;;;;;;;17.83;10.50;;;14.30;76.50;;;;;;4973426;28;20106;-64
2021/04/17 10:58:01;;;;;;;16.83;10.85;;;14.10;74.80;;;;;;4971708;28;20124;-64
2021/04/17 11:00:36;;;;;;;16.50;10.52;;;13.90;75.30;;;;;;4958639;28;20023;-65
2021/04/17 11:03:03;;;;;;;18.25;10.20;;;14.10;76.50;;;;;;4971585;28;20030;-64
2021/04/17 11:05:34;;;;;;;17.65;10.50;;;13.80;75.00;;;;;;4952252;28;20110;-63
2021/04/17 11:08:02;;;;;;;17.52;10.35;;;13.80;76.60;;;;;;4953824;28;20071;-64
2021/04/17 11:10:30;;;;;;;19.70;11.13;;;13.70;73.70;;;;;;4953250;28;20106;-64
2021/04/17 11:12:56;;;;;;;26.13;15.00;;;13.80;75.60;;;;;;4953926;28;20393;-63
2021/04/17 11:15:27;;;;;;;17.58;10.18;;;13.80;74.80;;;;;;4952296;29;20027;-64
2021/04/17 11:18:18;;;;;;;17.95;10.73;;;13.70;73.60;;;;;;4954023;28;20523;-62
2021/04/17 11:20:53;;;;;;;16.90;10.40;;;13.60;76.00;;;;;;4953618;28;20057;-63
2021/04/17 11:23:38;;;;;;;21.95;12.02;;;13.50;77.20;;;;;;4954017;28;20086;-64
2021/04/17 11:26:13;;;;;;;18.80;11.13;;;12.80;75.80;;;;;;4953941;28;20027;-63
2021/04/17 11:28:41;;;;;;;17.63;10.85;;;12.70;78.60;;;;;;4953466;29;20031;-62
2021/04/17 11:31:08;;;;;;;23.77;12.38;;;12.40;78.10;;;;;;4954575;28;20540;-64
2021/04/17 11:33:34;;;;;;;18.10;10.60;;;12.40;79.10;;;;;;4952092;29;20126;-61
2021/04/17 11:36:00;;;;;;;17.10;10.23;;;12.40;81.20;;;;;;4953650;29;20102;-62
2021/04/17 11:38:25;;;;;;;16.30;10.45;;;12.30;77.40;;;;;;4957550;28;20127;-63
2021/04/17 11:40:51;;;;;;;18.05;10.45;;;12.10;80.70;;;;;;4972373;28;20023;-66
2021/04/17 11:43:17;;;;;;;18.63;10.30;;;12.40;79.70;;;;;;4955488;28;20095;-67
2021/04/17 11:45:43;;;;;;;16.23;9.80;;;12.50;81.20;;;;;;4955178;28;20056;-64
2021/04/17 11:48:09;;;;;;;17.17;10.02;;;12.50;77.30;;;;;;4956277;28;20028;-64
2021/04/17 11:50:34;;;;;;;16.95;10.75;;;12.40;79.50;;;;;;4949944;28;20136;-64
2021/04/17 11:53:00;;;;;;;20.38;11.50;;;12.40;81.70;;;;;;4956474;28;20039;-64
2021/04/17 11:55:26;;;;;;;16.25;9.57;;;12.70;80.90;;;;;;4951390;29;20027;-66
2021/04/17 11:57:52;;;;;;;17.23;10.05;;;13.10;79.50;;;;;;4952525;28;20565;-66
2021/04/17 12:00:18;;;;;;;16.60;10.20;;;14.30;76.90;;;;;;4950176;28;20028;-66
2021/04/17 12:02:44;;;;;;;16.85;10.75;;;14.60;75.90;;;;;;4952518;28;20028;-65
2021/04/17 12:05:10;;;;;;;17.65;10.00;;;15.30;72.40;;;;;;4950650;28;20087;-65
2021/04/17 12:07:36;;;;;;;18.38;10.63;;;14.70;73.90;;;;;;4951503;29;20070;-64
2021/04/17 12:10:03;;;;;;;16.55;10.15;;;15.20;73.80;;;;;;4952037;28;20456;-66
2021/04/17 12:12:29;;;;;;;17.60;10.10;;;15.00;73.30;;;;;;4963467;28;20024;-65
2021/04/17 12:14:55;;;;;;;16.75;10.00;;;14.80;72.10;;;;;;4951436;29;20397;-65
2021/04/17 12:17:20;;;;;;;17.83;11.18;;;14.70;72.00;;;;;;4952793;28;20034;-66
2021/04/17 12:19:46;;;;;;;17.30;10.00;;;14.60;73.60;;;;;;4952121;28;20023;-67
2021/04/17 12:22:12;;;;;;;16.60;10.32;;;14.90;74.40;;;;;;4952761;29;20023;-65
2021/04/17 12:24:37;;;;;;;18.80;10.93;;;14.60;73.30;;;;;;4951326;29;20027;-65
2021/04/17 12:27:04;;;;;;;16.40;9.90;;;14.70;72.60;;;;;;4952438;29;20377;-65
2021/04/17 12:31:57;;;;;;;17.77;10.43;;;14.60;71.40;;;;;;4921088;29;20119;-64
2021/04/17 12:34:23;;;;;;;16.42;10.57;;;14.50;71.80;;;;;;4926492;29;20107;-64
2021/04/17 12:36:49;;;;;;;18.05;10.77;;;15.00;71.40;;;;;;4567314;29;9999606;-63
2021/04/17 12:39:15;;;;;;;16.92;10.93;;;14.90;70.40;;;;;;4914628;29;20063;-63
2021/04/17 12:41:40;;;;;;;19.73;12.15;;;16.20;69.10;;;;;;4920778;29;20512;-63
2021/04/17 12:44:10;;;;;;;18.17;11.55;;;17.80;66.20;;;;;;4921530;29;20062;-64
2021/04/17 12:46:37;;;;;;;19.83;11.38;;;19.00;64.90;;;;;;4916126;29;20387;-64
2021/04/17 12:49:03;;;;;;;17.63;11.70;;;20.10;61.00;;;;;;4918628;29;20123;-64
2021/04/17 12:51:29;;;;;;;17.70;11.80;;;21.00;57.70;;;;;;4918294;29;20112;-63
2021/04/17 12:53:55;;;;;;;18.73;11.77;;;21.30;55.50;;;;;;4917270;29;20031;-63
2021/04/17 12:56:20;;;;;;;17.75;11.82;;;19.40;55.60;;;;;;4919357;29;20038;-63
2021/04/17 12:58:46;;;;;;;20.13;11.30;;;19.70;56.80;;;;;;4906012;29;20538;-61
2021/04/17 13:01:12;;;;;;;19.83;11.10;;;19.00;56.70;;;;;;4910440;29;20103;-63
2021/04/17 13:03:38;;;;;;;17.92;11.10;;;17.40;58.10;;;;;;4923160;29;20197;-63
2021/04/17 13:06:03;;;;;;;18.83;11.63;;;18.40;59.20;;;;;;4922505;29;20393;-63
2021/04/17 13:08:30;;;;;;;19.85;11.23;;;19.50;56.70;;;;;;4929421;29;20027;-65
2021/04/17 13:10:56;;;;;;;16.42;11.48;;;20.10;57.10;;;;;;4926426;29;20542;-62
2021/04/17 13:13:23;;;;;;;20.77;11.70;;;20.20;55.40;;;;;;4921922;29;20039;-63
2021/04/17 13:15:48;;;;;;;16.40;11.98;;;19.50;57.20;;;;;;4928782;29;20043;-63
2021/04/17 13:18:14;;;;;;;17.73;11.40;;;20.10;55.40;;;;;;4937451;29;20027;-64
2021/04/17 13:20:41;;;;;;;18.13;11.73;;;21.50;53.40;;;;;;4928466;29;20059;-64
2021/04/17 13:23:07;;;;;;;18.23;11.80;;;21.20;53.40;;;;;;4927983;29;20035;-65